Time,TemperatureF,DewpointF,PressureIn,WindDirection,WindDirectionDegrees,WindSpeedMPH,WindSpeedGustMPH,Humidity,HourlyPrecipIn,Conditions,Clouds,dailyrainin,SolarRadiationWatts/m^2,SoftwareType,DateUTC
2013-02-18 00:01:00,27.0,26.0,-100.00,ENE,72,3.0,7.0,94,0.00,,,0.00,0.000000,,2013-02-18 07:01:00,
2013-02-18 00:11:00,27.0,26.0,-100.00,ENE,72,3.0,7.0,94,0.00,,,0.00,0.000000,,2013-02-18 07:11:00,
2013-02-18 00:21:00,27.0,26.0,-100.00,ENE,72,3.0,7.0,94,0.00,,,0.00,0.000000,,2013-02-18 07:21:00,
2013-02-18 00:30:00,26.0,23.0,-100.00,East,83,2.0,7.0,89,0.00,,,0.00,0.000000,,2013-02-18 07:30:00,
2013-02-18 00:52:00,26.0,23.0,-100.00,East,83,2.0,7.0,89,0.00,,,0.00,0.000000,,2013-02-18 07:52:00,
2013-02-18 01:01:00,26.0,23.0,-100.00,East,83,2.0,7.0,89,0.00,,,0.00,0.000000,,2013-02-18 08:01:00,
2013-02-18 01:11:00,26.0,23.0,-100.00,East,83,2.0,7.0,89,0.00,,,0.00,0.000000,,2013-02-18 08:11:00,
2013-02-18 01:21:00,26.0,23.0,-100.00,East,83,2.0,7.0,89,0.00,,,0.00,0.000000,,2013-02-18 08:21:00,
2013-02-18 01:30:00,25.0,23.0,-100.00,West,271,1.0,4.0,91,0.00,,,0.00,0.000000,,2013-02-18 08:30:00,
2013-02-18 01:52:00,25.0,23.0,-100.00,West,271,1.0,4.0,91,0.00,,,0.00,0.000000,,2013-02-18 08:52:00,
2013-02-18 02:02:00,25.0,23.0,-100.00,West,271,1.0,4.0,91,0.00,,,0.00,0.000000,,2013-02-18 09:02:00,
2013-02-18 02:11:00,25.0,23.0,-100.00,West,271,1.0,4.0,91,0.00,,,0.00,0.000000,,2013-02-18 09:11:00,
2013-02-18 02:22:00,25.0,23.0,-100.00,West,271,1.0,4.0,91,0.00,,,0.00,0.000000,,2013-02-18 09:22:00,
2013-02-18 02:30:00,25.0,23.0,-100.00,NNW,346,0.0,4.0,92,0.00,,,0.00,0.000000,,2013-02-18 09:30:00,
2013-02-18 02:52:00,25.0,23.0,-100.00,NNW,346,0.0,4.0,92,0.00,,,0.00,0.000000,,2013-02-18 09:52:00,
2013-02-18 03:01:00,25.0,23.0,-100.00,NNW,346,0.0,4.0,92,0.00,,,0.00,0.000000,,2013-02-18 10:01:00,
2013-02-18 03:11:00,25.0,23.0,-100.00,NNW,346,0.0,4.0,92,0.00,,,0.00,0.000000,,2013-02-18 10:11:00,
2013-02-18 03:21:00,25.0,23.0,-100.00,NNW,346,0.0,4.0,92,0.00,,,0.00,0.000000,,2013-02-18 10:21:00,
2013-02-18 03:30:00,21.0,18.0,-100.00,WSW,256,1.0,5.0,89,0.00,,,0.00,0.000000,,2013-02-18 10:30:00,
2013-02-18 03:52:00,21.0,18.0,-100.00,WSW,256,1.0,5.0,89,0.00,,,0.00,0.000000,,2013-02-18 10:52:00,
2013-02-18 04:01:00,21.0,18.0,-100.00,WSW,256,1.0,5.0,89,0.00,,,0.00,0.000000,,2013-02-18 11:01:00,
2013-02-18 04:11:00,21.0,18.0,-100.00,WSW,256,1.0,5.0,89,0.00,,,0.00,0.000000,,2013-02-18 11:11:00,
2013-02-18 04:21:00,21.0,18.0,-100.00,WSW,256,1.0,5.0,89,0.00,,,0.00,0.000000,,2013-02-18 11:21:00,
2013-02-18 04:30:00,19.0,17.0,-100.00,West,269,1.0,1.0,91,0.00,,,0.00,0.000000,,2013-02-18 11:30:00,
2013-02-18 04:53:00,19.0,17.0,-100.00,West,269,1.0,1.0,91,0.00,,,0.00,0.000000,,2013-02-18 11:53:00,
2013-02-18 05:02:00,19.0,17.0,-100.00,West,269,1.0,1.0,91,0.00,,,0.00,0.000000,,2013-02-18 12:02:00,
2013-02-18 05:11:00,19.0,17.0,-100.00,West,269,1.0,1.0,91,0.00,,,0.00,0.000000,,2013-02-18 12:11:00,
2013-02-18 05:21:00,19.0,17.0,-100.00,West,269,1.0,1.0,91,0.00,,,0.00,0.000000,,2013-02-18 12:21:00,
2013-02-18 05:30:00,17.0,15.0,-100.00,North,351,0.0,3.0,91,0.00,,,0.00,0.000000,,2013-02-18 12:30:00,
2013-02-18 05:53:00,17.0,15.0,-100.00,North,351,0.0,3.0,91,0.00,,,0.00,0.000000,,2013-02-18 12:53:00,
2013-02-18 06:02:00,17.0,15.0,-100.00,North,351,0.0,3.0,91,0.00,,,0.00,0.000000,,2013-02-18 13:02:00,
2013-02-18 06:12:00,17.0,15.0,-100.00,North,351,0.0,3.0,91,0.00,,,0.00,0.000000,,2013-02-18 13:12:00,
2013-02-18 06:22:00,17.0,15.0,-100.00,North,351,0.0,3.0,91,0.00,,,0.00,0.000000,,2013-02-18 13:22:00,
2013-02-18 06:30:00,13.0,10.0,-100.00,North,351,1.0,3.0,89,0.00,,,0.00,0.000000,,2013-02-18 13:30:00,
2013-02-18 06:53:00,13.0,10.0,-100.00,North,351,1.0,3.0,89,0.00,,,0.00,0.000000,,2013-02-18 13:53:00,
2013-02-18 07:02:00,13.0,10.0,-100.00,North,351,1.0,3.0,89,0.00,,,0.00,0.000000,,2013-02-18 14:02:00,
2013-02-18 07:11:00,13.0,10.0,-100.00,North,351,1.0,3.0,89,0.00,,,0.00,0.000000,,2013-02-18 14:11:00,
2013-02-18 07:22:00,13.0,10.0,-100.00,North,351,1.0,3.0,89,0.00,,,0.00,0.000000,,2013-02-18 14:22:00,
2013-02-18 07:30:00,16.0,13.0,-100.00,West,269,3.0,5.0,88,0.00,,,-99.99,0.000000,,2013-02-18 14:30:00,
2013-02-18 07:53:00,16.0,13.0,-100.00,West,269,3.0,5.0,88,0.00,,,-99.99,0.000000,,2013-02-18 14:53:00,
2013-02-18 08:02:00,16.0,13.0,-100.00,West,269,3.0,5.0,88,0.00,,,-99.99,0.000000,,2013-02-18 15:02:00,
2013-02-18 08:11:00,16.0,13.0,-100.00,West,269,3.0,5.0,88,0.00,,,-99.99,0.000000,,2013-02-18 15:11:00,
2013-02-18 08:22:00,16.0,13.0,-100.00,West,269,3.0,5.0,88,0.00,,,-99.99,0.000000,,2013-02-18 15:22:00,
2013-02-18 08:30:00,18.0,16.0,-100.00,West,261,4.0,6.0,90,0.00,,,0.00,8.000000,,2013-02-18 15:30:00,
2013-02-18 08:52:00,18.0,16.0,-100.00,West,261,4.0,6.0,90,0.00,,,0.00,8.000000,,2013-02-18 15:52:00,
2013-02-18 09:02:00,18.0,16.0,-100.00,West,261,4.0,6.0,90,0.00,,,0.00,8.000000,,2013-02-18 16:02:00,
2013-02-18 09:11:00,18.0,16.0,-100.00,West,261,4.0,6.0,90,0.00,,,0.00,8.000000,,2013-02-18 16:11:00,
2013-02-18 09:21:00,18.0,16.0,-100.00,West,261,4.0,6.0,90,0.00,,,0.00,8.000000,,2013-02-18 16:21:00,
2013-02-18 09:30:00,20.0,16.0,-100.00,WSW,253,6.0,8.0,85,0.00,,,0.00,67.000000,,2013-02-18 16:30:00,
2013-02-18 09:53:00,20.0,16.0,-100.00,WSW,253,6.0,8.0,85,0.00,,,0.00,67.000000,,2013-02-18 16:53:00,
2013-02-18 10:03:00,20.0,16.0,-100.00,WSW,253,6.0,8.0,85,0.00,,,0.00,67.000000,,2013-02-18 17:03:00,
2013-02-18 10:11:00,20.0,16.0,-100.00,WSW,253,6.0,8.0,85,0.00,,,0.00,67.000000,,2013-02-18 17:11:00,
2013-02-18 10:21:00,20.0,16.0,-100.00,WSW,253,6.0,8.0,85,0.00,,,0.00,67.000000,,2013-02-18 17:21:00,
2013-02-18 10:30:00,26.0,18.0,-100.00,WSW,247,7.0,8.0,71,0.00,,,0.00,123.000000,,2013-02-18 17:30:00,
2013-02-18 10:53:00,26.0,18.0,-100.00,WSW,247,7.0,8.0,71,0.00,,,0.00,123.000000,,2013-02-18 17:53:00,
2013-02-18 11:02:00,26.0,18.0,-100.00,WSW,247,7.0,8.0,71,0.00,,,0.00,123.000000,,2013-02-18 18:02:00,
2013-02-18 11:11:00,26.0,18.0,-100.00,WSW,247,7.0,8.0,71,0.00,,,0.00,123.000000,,2013-02-18 18:11:00,
2013-02-18 11:22:00,26.0,18.0,-100.00,WSW,247,7.0,8.0,71,0.00,,,0.00,123.000000,,2013-02-18 18:22:00,
2013-02-18 11:30:00,27.0,20.0,-100.00,WSW,244,6.0,9.0,73,0.00,,,-99.99,147.000000,,2013-02-18 18:30:00,
2013-02-18 11:53:00,27.0,20.0,-100.00,WSW,244,6.0,9.0,73,0.00,,,-99.99,147.000000,,2013-02-18 18:53:00,
2013-02-18 12:02:00,27.0,20.0,-100.00,WSW,244,6.0,9.0,73,0.00,,,-99.99,147.000000,,2013-02-18 19:02:00,
2013-02-18 12:12:00,27.0,20.0,-100.00,WSW,244,6.0,9.0,73,0.00,,,-99.99,147.000000,,2013-02-18 19:12:00,
2013-02-18 12:21:00,27.0,20.0,-100.00,WSW,244,6.0,9.0,73,0.00,,,-99.99,147.000000,,2013-02-18 19:21:00,
2013-02-18 12:30:00,30.0,23.0,-100.00,West,261,7.0,9.0,74,0.00,,,0.00,151.000000,,2013-02-18 19:30:00,
2013-02-18 12:53:00,30.0,23.0,-100.00,West,261,7.0,9.0,74,0.00,,,0.00,151.000000,,2013-02-18 19:53:00,
2013-02-18 13:02:00,30.0,23.0,-100.00,West,261,7.0,9.0,74,0.00,,,0.00,151.000000,,2013-02-18 20:02:00,
2013-02-18 13:12:00,30.0,23.0,-100.00,West,261,7.0,9.0,74,0.00,,,0.00,151.000000,,2013-02-18 20:12:00,
2013-02-18 13:22:00,30.0,23.0,-100.00,West,261,7.0,9.0,74,0.00,,,0.00,151.000000,,2013-02-18 20:22:00,
2013-02-18 13:30:00,33.0,24.0,-100.00,West,268,5.0,9.0,68,0.00,,,0.00,171.000000,,2013-02-18 20:30:00,
2013-02-18 13:53:00,33.0,24.0,-100.00,West,268,5.0,9.0,68,0.00,,,0.00,171.000000,,2013-02-18 20:53:00,
2013-02-18 14:02:00,33.0,24.0,-100.00,West,268,5.0,9.0,68,0.00,,,0.00,171.000000,,2013-02-18 21:02:00,
2013-02-18 14:11:00,33.0,24.0,-100.00,West,268,5.0,9.0,68,0.00,,,0.00,171.000000,,2013-02-18 21:11:00,
2013-02-18 14:21:00,33.0,24.0,-100.00,West,268,5.0,9.0,68,0.00,,,0.00,171.000000,,2013-02-18 21:21:00,
2013-02-18 14:30:00,36.0,24.0,-100.00,NW,307,5.0,8.0,61,0.00,,,0.00,152.000000,,2013-02-18 21:30:00,
2013-02-18 14:53:00,36.0,24.0,-100.00,NW,307,5.0,8.0,61,0.00,,,0.00,152.000000,,2013-02-18 21:53:00,
2013-02-18 15:02:00,36.0,24.0,-100.00,NW,307,5.0,8.0,61,0.00,,,0.00,152.000000,,2013-02-18 22:02:00,
2013-02-18 15:12:00,36.0,24.0,-100.00,NW,307,5.0,8.0,61,0.00,,,0.00,152.000000,,2013-02-18 22:12:00,
2013-02-18 15:22:00,36.0,24.0,-100.00,NW,307,5.0,8.0,61,0.00,,,0.00,152.000000,,2013-02-18 22:22:00,
2013-02-18 15:30:00,37.0,23.0,-100.00,NW,304,5.0,9.0,56,0.00,,,0.00,264.000000,,2013-02-18 22:30:00,
2013-02-18 15:53:00,37.0,23.0,-100.00,NW,304,5.0,9.0,56,0.00,,,0.00,264.000000,,2013-02-18 22:53:00,
2013-02-18 16:02:00,37.0,23.0,-100.00,NW,304,5.0,9.0,56,0.00,,,0.00,264.000000,,2013-02-18 23:02:00,
2013-02-18 16:12:00,37.0,23.0,-100.00,NW,304,5.0,9.0,56,0.00,,,0.00,264.000000,,2013-02-18 23:12:00,
2013-02-18 16:22:00,37.0,23.0,-100.00,NW,304,5.0,9.0,56,0.00,,,0.00,264.000000,,2013-02-18 23:22:00,
2013-02-18 16:30:00,34.0,23.0,-100.00,East,97,3.0,6.0,65,0.00,,,0.00,311.000000,,2013-02-18 23:30:00,
2013-02-18 16:53:00,34.0,23.0,-100.00,East,97,3.0,6.0,65,0.00,,,0.00,311.000000,,2013-02-18 23:53:00,
2013-02-18 17:02:00,34.0,23.0,-100.00,East,97,3.0,6.0,65,0.00,,,0.00,311.000000,,2013-02-19 00:02:00,
2013-02-18 17:12:00,34.0,23.0,-100.00,East,97,3.0,6.0,65,0.00,,,0.00,311.000000,,2013-02-19 00:12:00,
2013-02-18 17:22:00,34.0,23.0,-100.00,East,97,3.0,6.0,65,0.00,,,0.00,311.000000,,2013-02-19 00:22:00,
2013-02-18 17:30:00,28.0,20.0,-100.00,East,99,5.0,7.0,72,0.00,,,0.00,201.000000,,2013-02-19 00:30:00,
2013-02-18 17:54:00,28.0,20.0,-100.00,East,99,5.0,7.0,72,0.00,,,0.00,201.000000,,2013-02-19 00:54:00,
2013-02-18 18:03:00,28.0,20.0,-100.00,East,99,5.0,7.0,72,0.00,,,0.00,201.000000,,2013-02-19 01:03:00,
2013-02-18 18:12:00,28.0,20.0,-100.00,East,99,5.0,7.0,72,0.00,,,0.00,201.000000,,2013-02-19 01:12:00,
2013-02-18 18:22:00,28.0,20.0,-100.00,East,99,5.0,7.0,72,0.00,,,0.00,201.000000,,2013-02-19 01:22:00,
2013-02-18 18:30:00,24.0,20.0,-100.00,ENE,77,3.0,6.0,85,0.00,,,0.00,8.000000,,2013-02-19 01:30:00,
2013-02-18 18:55:00,24.0,20.0,-100.00,ENE,77,3.0,6.0,85,0.00,,,0.00,8.000000,,2013-02-19 01:55:00,
2013-02-18 19:02:00,24.0,20.0,-100.00,ENE,77,3.0,6.0,85,0.00,,,0.00,8.000000,,2013-02-19 02:02:00,
2013-02-18 19:12:00,24.0,20.0,-100.00,ENE,77,3.0,6.0,85,0.00,,,0.00,8.000000,,2013-02-19 02:12:00,
2013-02-18 19:22:00,24.0,20.0,-100.00,ENE,77,3.0,6.0,85,0.00,,,0.00,8.000000,,2013-02-19 02:22:00,
2013-02-18 19:30:00,19.0,16.0,-100.00,WNW,298,1.0,3.0,86,0.00,,,0.00,0.000000,,2013-02-19 02:30:00,
2013-02-18 19:54:00,19.0,16.0,-100.00,WNW,298,1.0,3.0,86,0.00,,,0.00,0.000000,,2013-02-19 02:54:00,
2013-02-18 20:04:00,19.0,16.0,-100.00,WNW,298,1.0,3.0,86,0.00,,,0.00,0.000000,,2013-02-19 03:04:00,
2013-02-18 20:13:00,19.0,16.0,-100.00,WNW,298,1.0,3.0,86,0.00,,,0.00,0.000000,,2013-02-19 03:13:00,
2013-02-18 20:22:00,19.0,16.0,-100.00,WNW,298,1.0,3.0,86,0.00,,,0.00,0.000000,,2013-02-19 03:22:00,
2013-02-18 20:30:00,20.0,17.0,-100.00,WNW,286,2.0,3.0,89,0.00,,,0.00,0.000000,,2013-02-19 03:30:00,
2013-02-18 20:54:00,20.0,17.0,-100.00,WNW,286,2.0,3.0,89,0.00,,,0.00,0.000000,,2013-02-19 03:54:00,
2013-02-18 21:02:00,20.0,17.0,-100.00,WNW,286,2.0,3.0,89,0.00,,,0.00,0.000000,,2013-02-19 04:02:00,
2013-02-18 21:13:00,20.0,17.0,-100.00,WNW,286,2.0,3.0,89,0.00,,,0.00,0.000000,,2013-02-19 04:13:00,
2013-02-18 21:22:00,20.0,17.0,-100.00,WNW,286,2.0,3.0,89,0.00,,,0.00,0.000000,,2013-02-19 04:22:00,
2013-02-18 21:30:00,20.0,18.0,-100.00,West,264,1.0,4.0,92,0.00,,,0.00,0.000000,,2013-02-19 04:30:00,
2013-02-18 21:54:00,20.0,18.0,-100.00,West,264,1.0,4.0,92,0.00,,,0.00,0.000000,,2013-02-19 04:54:00,
2013-02-18 22:02:00,20.0,18.0,-100.00,West,264,1.0,4.0,92,0.00,,,0.00,0.000000,,2013-02-19 05:02:00,
2013-02-18 22:12:00,20.0,18.0,-100.00,West,264,1.0,4.0,92,0.00,,,0.00,0.000000,,2013-02-19 05:12:00,
2013-02-18 22:22:00,20.0,18.0,-100.00,West,264,1.0,4.0,92,0.00,,,0.00,0.000000,,2013-02-19 05:22:00,
2013-02-18 22:30:00,19.0,17.0,-100.00,NNW,336,0.0,2.0,93,0.00,,,0.00,0.000000,,2013-02-19 05:30:00,
2013-02-18 22:52:00,19.0,17.0,-100.00,NNW,336,0.0,2.0,93,0.00,,,0.00,0.000000,,2013-02-19 05:52:00,
2013-02-18 23:02:00,19.0,17.0,-100.00,NNW,336,0.0,2.0,93,0.00,,,0.00,0.000000,,2013-02-19 06:02:00,
2013-02-18 23:11:00,19.0,17.0,-100.00,NNW,336,0.0,2.0,93,0.00,,,0.00,0.000000,,2013-02-19 06:11:00,
2013-02-18 23:21:00,19.0,17.0,-100.00,NNW,336,0.0,2.0,93,0.00,,,0.00,0.000000,,2013-02-19 06:21:00,
2013-02-18 23:30:00,21.0,19.0,-100.00,SW,236,2.0,4.0,93,0.00,,,0.00,0.000000,,2013-02-19 06:30:00,
2013-02-18 23:52:00,21.0,19.0,-100.00,SW,236,2.0,4.0,93,0.00,,,0.00,0.000000,,2013-02-19 06:52:00,